Terminal Aerodrome Forecast
Issued by NWS La Crosse, WI

Home | Current Version | Previous Version | Text Only | Print | Product List | Glossary On
Versions: 1 2 3 4 5 6 7 8 9 10 11 12 13 14 15 16 17 18 19 20 21 22 23 24 25 26 27 28 29 30 31 32 33 34 35 36 37
000
FTUS43 KARX 241727
TAFLSE
TAF
KLSE 241727Z 2418/2518 02013KT 2SM -SN OVC015
     FM242300 36013G21KT 1 1/2SM -SN OVC015
     FM250500 34012KT P6SM OVC030
     FM251300 32010G21KT P6SM SCT030=

USA.gov is the U.S. government's official web portal to all federal, state and local government web resources and services.